sensor_id;sensor_type;location;lat;lon;timestamp;P1;durP1;ratioP1;P2;durP2;ratioP2
66559;SDS011;53413;49.878;8.142;2023-02-12T00:01:09;30.97;;;12.63;;
66559;SDS011;53413;49.878;8.142;2023-02-12T00:03:36;29.42;;;12.77;;
66559;SDS011;53413;49.878;8.142;2023-02-12T00:06:02;29.77;;;13.23;;
66559;SDS011;53413;49.878;8.142;2023-02-12T00:08:28;30.17;;;12.20;;
66559;SDS011;53413;49.878;8.142;2023-02-12T00:10:54;32.27;;;12.80;;
66559;SDS011;53413;49.878;8.142;2023-02-12T00:13:19;30.13;;;13.47;;
66559;SDS011;53413;49.878;8.142;2023-02-12T00:15:44;34.53;;;13.70;;
66559;SDS011;53413;49.878;8.142;2023-02-12T00:18:10;34.72;;;13.68;;
66559;SDS011;53413;49.878;8.142;2023-02-12T00:20:35;32.20;;;13.20;;
66559;SDS011;53413;49.878;8.142;2023-02-12T00:23:02;30.42;;;13.10;;
66559;SDS011;53413;49.878;8.142;2023-02-12T00:25:28;31.97;;;13.23;;
66559;SDS011;53413;49.878;8.142;2023-02-12T00:27:53;32.08;;;12.63;;
66559;SDS011;53413;49.878;8.142;2023-02-12T00:30:19;34.23;;;13.53;;
66559;SDS011;53413;49.878;8.142;2023-02-12T00:32:44;33.57;;;13.80;;
66559;SDS011;53413;49.878;8.142;2023-02-12T00:35:10;31.52;;;12.88;;
66559;SDS011;53413;49.878;8.142;2023-02-12T00:37:36;33.10;;;13.43;;
66559;SDS011;53413;49.878;8.142;2023-02-12T00:40:01;32.40;;;12.60;;
66559;SDS011;53413;49.878;8.142;2023-02-12T00:42:26;31.73;;;12.60;;
66559;SDS011;53413;49.878;8.142;2023-02-12T00:44:52;32.00;;;13.20;;
66559;SDS011;53413;49.878;8.142;2023-02-12T00:47:17;32.35;;;13.40;;
66559;SDS011;53413;49.878;8.142;2023-02-12T00:49:43;35.17;;;13.23;;
66559;SDS011;53413;49.878;8.142;2023-02-12T00:52:09;31.60;;;13.07;;
66559;SDS011;53413;49.878;8.142;2023-02-12T00:54:34;32.75;;;13.40;;
66559;SDS011;53413;49.878;8.142;2023-02-12T00:56:59;32.73;;;13.60;;
66559;SDS011;53413;49.878;8.142;2023-02-12T00:59:25;34.03;;;14.17;;
66559;SDS011;53413;49.878;8.142;2023-02-12T01:01:52;31.38;;;13.70;;
66559;SDS011;53413;49.878;8.142;2023-02-12T01:04:19;32.93;;;13.53;;
66559;SDS011;53413;49.878;8.142;2023-02-12T01:06:45;36.13;;;14.32;;
66559;SDS011;53413;49.878;8.142;2023-02-12T01:09:10;34.05;;;14.07;;
66559;SDS011;53413;49.878;8.142;2023-02-12T01:11:36;32.63;;;14.03;;
66559;SDS011;53413;49.878;8.142;2023-02-12T01:14:02;32.67;;;13.38;;
66559;SDS011;53413;49.878;8.142;2023-02-12T01:16:29;31.97;;;13.73;;
66559;SDS011;53413;49.878;8.142;2023-02-12T01:18:55;32.25;;;13.50;;
66559;SDS011;53413;49.878;8.142;2023-02-12T01:21:28;32.92;;;13.80;;
66559;SDS011;53413;49.878;8.142;2023-02-12T01:23:55;31.52;;;13.18;;
66559;SDS011;53413;49.878;8.142;2023-02-12T01:26:22;33.77;;;14.03;;
66559;SDS011;53413;49.878;8.142;2023-02-12T01:28:51;35.33;;;13.48;;
66559;SDS011;53413;49.878;8.142;2023-02-12T01:31:20;31.38;;;13.70;;
66559;SDS011;53413;49.878;8.142;2023-02-12T01:33:48;31.63;;;13.77;;
66559;SDS011;53413;49.878;8.142;2023-02-12T01:36:18;33.75;;;13.48;;
66559;SDS011;53413;49.878;8.142;2023-02-12T01:38:44;32.03;;;13.50;;
66559;SDS011;53413;49.878;8.142;2023-02-12T01:41:10;35.63;;;13.97;;
66559;SDS011;53413;49.878;8.142;2023-02-12T01:43:39;36.35;;;14.00;;
66559;SDS011;53413;49.878;8.142;2023-02-12T01:46:04;34.73;;;14.03;;
66559;SDS011;53413;49.878;8.142;2023-02-12T01:48:32;34.58;;;13.75;;
66559;SDS011;53413;49.878;8.142;2023-02-12T01:51:06;31.48;;;13.70;;
66559;SDS011;53413;49.878;8.142;2023-02-12T01:53:37;33.53;;;14.00;;
66559;SDS011;53413;49.878;8.142;2023-02-12T01:56:05;33.58;;;14.20;;
66559;SDS011;53413;49.878;8.142;2023-02-12T01:58:35;34.53;;;14.60;;
66559;SDS011;53413;49.878;8.142;2023-02-12T02:01:03;34.30;;;14.43;;
66559;SDS011;53413;49.878;8.142;2023-02-12T02:03:33;36.05;;;15.30;;
66559;SDS011;53413;49.878;8.142;2023-02-12T02:06:03;34.83;;;14.90;;
66559;SDS011;53413;49.878;8.142;2023-02-12T02:08:34;37.10;;;14.93;;
66559;SDS011;53413;49.878;8.142;2023-02-12T02:11:00;33.63;;;14.63;;
66559;SDS011;53413;49.878;8.142;2023-02-12T02:13:45;32.35;;;14.73;;
66559;SDS011;53413;49.878;8.142;2023-02-12T02:16:29;37.90;;;14.77;;
66559;SDS011;53413;49.878;8.142;2023-02-12T02:19:06;37.35;;;14.88;;
66559;SDS011;53413;49.878;8.142;2023-02-12T02:30:16;37.58;;;15.40;;
66559;SDS011;53413;49.878;8.142;2023-02-12T02:38:38;34.30;;;15.03;;
66559;SDS011;53413;49.878;8.142;2023-02-12T02:41:06;39.15;;;15.60;;
66559;SDS011;53413;49.878;8.142;2023-02-12T02:43:48;36.63;;;15.20;;
66559;SDS011;53413;49.878;8.142;2023-02-12T02:46:35;36.95;;;14.93;;
66559;SDS011;53413;49.878;8.142;2023-02-12T02:49:08;36.03;;;14.80;;
66559;SDS011;53413;49.878;8.142;2023-02-12T02:51:40;37.47;;;15.67;;
66559;SDS011;53413;49.878;8.142;2023-02-12T02:54:11;38.70;;;15.25;;
66559;SDS011;53413;49.878;8.142;2023-02-12T02:56:41;35.97;;;15.48;;
66559;SDS011;53413;49.878;8.142;2023-02-12T02:59:14;36.70;;;15.30;;
66559;SDS011;53413;49.878;8.142;2023-02-12T03:02:02;37.95;;;15.50;;
66559;SDS011;53413;49.878;8.142;2023-02-12T03:04:34;37.23;;;15.67;;
66559;SDS011;53413;49.878;8.142;2023-02-12T03:07:09;35.85;;;15.00;;
66559;SDS011;53413;49.878;8.142;2023-02-12T03:09:39;34.88;;;14.73;;
66559;SDS011;53413;49.878;8.142;2023-02-12T03:12:11;35.85;;;15.40;;
66559;SDS011;53413;49.878;8.142;2023-02-12T03:14:43;39.15;;;15.80;;
66559;SDS011;53413;49.878;8.142;2023-02-12T03:17:34;38.57;;;15.40;;
66559;SDS011;53413;49.878;8.142;2023-02-12T03:20:25;38.45;;;16.02;;
66559;SDS011;53413;49.878;8.142;2023-02-12T03:23:06;38.45;;;15.20;;
66559;SDS011;53413;49.878;8.142;2023-02-12T03:25:54;34.90;;;14.95;;
66559;SDS011;53413;49.878;8.142;2023-02-12T03:28:35;35.92;;;15.52;;
66559;SDS011;53413;49.878;8.142;2023-02-12T03:31:14;37.07;;;15.27;;
66559;SDS011;53413;49.878;8.142;2023-02-12T03:47:24;34.70;;;14.35;;
66559;SDS011;53413;49.878;8.142;2023-02-12T03:50:05;36.58;;;15.20;;
66559;SDS011;53413;49.878;8.142;2023-02-12T03:52:31;35.63;;;15.07;;
66559;SDS011;53413;49.878;8.142;2023-02-12T03:54:58;34.55;;;15.65;;
66559;SDS011;53413;49.878;8.142;2023-02-12T03:57:25;38.77;;;15.73;;
66559;SDS011;53413;49.878;8.142;2023-02-12T03:59:56;37.65;;;15.50;;
66559;SDS011;53413;49.878;8.142;2023-02-12T04:02:23;38.03;;;15.98;;
66559;SDS011;53413;49.878;8.142;2023-02-12T04:04:48;40.50;;;15.90;;
66559;SDS011;53413;49.878;8.142;2023-02-12T04:07:15;35.13;;;15.40;;
66559;SDS011;53413;49.878;8.142;2023-02-12T04:09:41;38.55;;;15.68;;
66559;SDS011;53413;49.878;8.142;2023-02-12T04:12:09;39.92;;;16.33;;
66559;SDS011;53413;49.878;8.142;2023-02-12T04:17:37;37.30;;;15.73;;
66559;SDS011;53413;49.878;8.142;2023-02-12T04:28:14;35.78;;;15.65;;
66559;SDS011;53413;49.878;8.142;2023-02-12T04:31:10;38.13;;;15.50;;
66559;SDS011;53413;49.878;8.142;2023-02-12T04:34:05;37.63;;;15.45;;
66559;SDS011;53413;49.878;8.142;2023-02-12T04:36:32;35.97;;;15.63;;
66559;SDS011;53413;49.878;8.142;2023-02-12T04:39:20;37.47;;;15.20;;
66559;SDS011;53413;49.878;8.142;2023-02-12T04:41:49;37.55;;;15.68;;
66559;SDS011;53413;49.878;8.142;2023-02-12T04:44:25;39.00;;;15.50;;
66559;SDS011;53413;49.878;8.142;2023-02-12T04:46:52;37.10;;;15.43;;
66559;SDS011;53413;49.878;8.142;2023-02-12T04:49:18;38.73;;;15.60;;
66559;SDS011;53413;49.878;8.142;2023-02-12T04:51:45;35.50;;;15.38;;
66559;SDS011;53413;49.878;8.142;2023-02-12T04:54:11;34.93;;;14.90;;
66559;SDS011;53413;49.878;8.142;2023-02-12T04:56:38;38.58;;;15.52;;
66559;SDS011;53413;49.878;8.142;2023-02-12T04:59:03;35.90;;;14.93;;
66559;SDS011;53413;49.878;8.142;2023-02-12T05:01:28;36.43;;;15.03;;
66559;SDS011;53413;49.878;8.142;2023-02-12T05:03:54;35.88;;;14.68;;
66559;SDS011;53413;49.878;8.142;2023-02-12T05:06:19;36.17;;;14.70;;
66559;SDS011;53413;49.878;8.142;2023-02-12T05:08:45;37.77;;;15.10;;
66559;SDS011;53413;49.878;8.142;2023-02-12T05:11:10;36.10;;;15.33;;
66559;SDS011;53413;49.878;8.142;2023-02-12T05:13:36;35.95;;;15.15;;
66559;SDS011;53413;49.878;8.142;2023-02-12T05:16:02;36.43;;;15.07;;
66559;SDS011;53413;49.878;8.142;2023-02-12T05:18:29;38.42;;;15.48;;
66559;SDS011;53413;49.878;8.142;2023-02-12T05:20:56;35.08;;;14.35;;
66559;SDS011;53413;49.878;8.142;2023-02-12T05:23:22;36.33;;;15.00;;
66559;SDS011;53413;49.878;8.142;2023-02-12T05:25:50;34.53;;;14.38;;
66559;SDS011;53413;49.878;8.142;2023-02-12T05:28:15;34.87;;;14.80;;
66559;SDS011;53413;49.878;8.142;2023-02-12T05:30:41;36.40;;;15.03;;
66559;SDS011;53413;49.878;8.142;2023-02-12T05:33:06;36.70;;;14.50;;
66559;SDS011;53413;49.878;8.142;2023-02-12T05:35:33;35.80;;;14.77;;
66559;SDS011;53413;49.878;8.142;2023-02-12T05:37:59;35.28;;;14.70;;
66559;SDS011;53413;49.878;8.142;2023-02-12T05:40:24;35.80;;;15.00;;
66559;SDS011;53413;49.878;8.142;2023-02-12T05:42:49;37.77;;;15.60;;
66559;SDS011;53413;49.878;8.142;2023-02-12T05:45:14;36.03;;;14.93;;
66559;SDS011;53413;49.878;8.142;2023-02-12T05:47:40;38.57;;;15.03;;
66559;SDS011;53413;49.878;8.142;2023-02-12T05:50:05;35.23;;;14.93;;
66559;SDS011;53413;49.878;8.142;2023-02-12T05:52:32;35.65;;;14.90;;
66559;SDS011;53413;49.878;8.142;2023-02-12T05:54:57;36.17;;;15.20;;
66559;SDS011;53413;49.878;8.142;2023-02-12T05:57:23;36.33;;;15.50;;
66559;SDS011;53413;49.878;8.142;2023-02-12T05:59:48;33.93;;;14.23;;
66559;SDS011;53413;49.878;8.142;2023-02-12T06:02:13;36.70;;;14.80;;
66559;SDS011;53413;49.878;8.142;2023-02-12T06:04:39;35.33;;;15.00;;
66559;SDS011;53413;49.878;8.142;2023-02-12T06:07:04;39.15;;;15.02;;
66559;SDS011;53413;49.878;8.142;2023-02-12T06:09:31;40.40;;;16.50;;
66559;SDS011;53413;49.878;8.142;2023-02-12T06:11:56;38.92;;;14.90;;
66559;SDS011;53413;49.878;8.142;2023-02-12T06:14:23;37.30;;;15.27;;
66559;SDS011;53413;49.878;8.142;2023-02-12T06:16:49;38.63;;;15.07;;
66559;SDS011;53413;49.878;8.142;2023-02-12T06:19:16;40.05;;;15.65;;
66559;SDS011;53413;49.878;8.142;2023-02-12T06:21:42;36.05;;;15.00;;
66559;SDS011;53413;49.878;8.142;2023-02-12T06:24:08;37.47;;;14.47;;
66559;SDS011;53413;49.878;8.142;2023-02-12T06:26:35;36.35;;;14.98;;
66559;SDS011;53413;49.878;8.142;2023-02-12T06:29:01;39.17;;;15.30;;
66559;SDS011;53413;49.878;8.142;2023-02-12T06:31:30;36.90;;;14.27;;
66559;SDS011;53413;49.878;8.142;2023-02-12T06:33:59;39.13;;;14.88;;
66559;SDS011;53413;49.878;8.142;2023-02-12T06:36:26;40.58;;;15.82;;
66559;SDS011;53413;49.878;8.142;2023-02-12T06:38:52;38.15;;;15.02;;
66559;SDS011;53413;49.878;8.142;2023-02-12T06:41:17;38.50;;;14.77;;
66559;SDS011;53413;49.878;8.142;2023-02-12T06:43:43;42.17;;;15.87;;
66559;SDS011;53413;49.878;8.142;2023-02-12T06:46:09;41.63;;;15.43;;
66559;SDS011;53413;49.878;8.142;2023-02-12T06:48:34;40.50;;;14.88;;
66559;SDS011;53413;49.878;8.142;2023-02-12T06:51:04;38.33;;;14.80;;
66559;SDS011;53413;49.878;8.142;2023-02-12T06:53:35;35.25;;;14.15;;
66559;SDS011;53413;49.878;8.142;2023-02-12T06:56:01;42.40;;;14.87;;
66559;SDS011;53413;49.878;8.142;2023-02-12T06:58:28;41.83;;;15.60;;
66559;SDS011;53413;49.878;8.142;2023-02-12T07:00:53;41.37;;;15.03;;
66559;SDS011;53413;49.878;8.142;2023-02-12T07:03:18;39.03;;;14.75;;
66559;SDS011;53413;49.878;8.142;2023-02-12T07:05:44;36.93;;;14.27;;
66559;SDS011;53413;49.878;8.142;2023-02-12T07:08:10;37.03;;;14.67;;
66559;SDS011;53413;49.878;8.142;2023-02-12T07:10:35;36.95;;;14.35;;
66559;SDS011;53413;49.878;8.142;2023-02-12T07:13:01;38.00;;;15.27;;
66559;SDS011;53413;49.878;8.142;2023-02-12T07:15:26;36.10;;;14.43;;
66559;SDS011;53413;49.878;8.142;2023-02-12T07:17:51;43.10;;;16.03;;
66559;SDS011;53413;49.878;8.142;2023-02-12T07:20:17;45.93;;;17.10;;
66559;SDS011;53413;49.878;8.142;2023-02-12T07:22:42;40.63;;;16.05;;
66559;SDS011;53413;49.878;8.142;2023-02-12T07:25:08;39.63;;;15.33;;
66559;SDS011;53413;49.878;8.142;2023-02-12T07:27:35;40.97;;;15.30;;
66559;SDS011;53413;49.878;8.142;2023-02-12T07:30:01;39.92;;;15.07;;
66559;SDS011;53413;49.878;8.142;2023-02-12T07:32:28;40.90;;;15.98;;
66559;SDS011;53413;49.878;8.142;2023-02-12T07:34:53;38.90;;;15.63;;
66559;SDS011;53413;49.878;8.142;2023-02-12T07:37:18;41.57;;;15.60;;
66559;SDS011;53413;49.878;8.142;2023-02-12T07:39:46;39.17;;;15.38;;
66559;SDS011;53413;49.878;8.142;2023-02-12T07:42:12;38.20;;;15.70;;
66559;SDS011;53413;49.878;8.142;2023-02-12T07:44:39;38.90;;;15.73;;
66559;SDS011;53413;49.878;8.142;2023-02-12T07:47:04;37.97;;;16.13;;
66559;SDS011;53413;49.878;8.142;2023-02-12T07:49:30;38.83;;;15.77;;
66559;SDS011;53413;49.878;8.142;2023-02-12T07:51:55;40.90;;;16.60;;
66559;SDS011;53413;49.878;8.142;2023-02-12T07:54:20;39.33;;;15.00;;
66559;SDS011;53413;49.878;8.142;2023-02-12T07:56:46;39.08;;;15.55;;
66559;SDS011;53413;49.878;8.142;2023-02-12T07:59:13;39.10;;;15.40;;
66559;SDS011;53413;49.878;8.142;2023-02-12T08:01:42;37.83;;;15.30;;
66559;SDS011;53413;49.878;8.142;2023-02-12T08:04:12;40.35;;;15.27;;
66559;SDS011;53413;49.878;8.142;2023-02-12T08:06:41;36.77;;;14.93;;
66559;SDS011;53413;49.878;8.142;2023-02-12T08:09:09;40.38;;;15.52;;
66559;SDS011;53413;49.878;8.142;2023-02-12T08:11:37;40.60;;;16.08;;
66559;SDS011;53413;49.878;8.142;2023-02-12T08:14:03;39.83;;;15.68;;
66559;SDS011;53413;49.878;8.142;2023-02-12T08:16:29;39.13;;;15.52;;
66559;SDS011;53413;49.878;8.142;2023-02-12T08:18:55;38.57;;;15.43;;
66559;SDS011;53413;49.878;8.142;2023-02-12T08:21:23;39.53;;;15.50;;
66559;SDS011;53413;49.878;8.142;2023-02-12T08:23:50;39.97;;;15.48;;
66559;SDS011;53413;49.878;8.142;2023-02-12T08:26:21;40.08;;;15.73;;
66559;SDS011;53413;49.878;8.142;2023-02-12T08:28:54;41.97;;;16.00;;
66559;SDS011;53413;49.878;8.142;2023-02-12T08:31:28;43.43;;;16.27;;
66559;SDS011;53413;49.878;8.142;2023-02-12T08:34:01;40.97;;;16.00;;
66559;SDS011;53413;49.878;8.142;2023-02-12T08:36:28;41.08;;;16.42;;
66559;SDS011;53413;49.878;8.142;2023-02-12T08:38:59;41.08;;;17.35;;
66559;SDS011;53413;49.878;8.142;2023-02-12T08:41:25;42.53;;;18.93;;
66559;SDS011;53413;49.878;8.142;2023-02-12T08:43:53;46.03;;;20.05;;
66559;SDS011;53413;49.878;8.142;2023-02-12T08:46:24;46.92;;;19.65;;
66559;SDS011;53413;49.878;8.142;2023-02-12T08:48:52;42.70;;;19.00;;
66559;SDS011;53413;49.878;8.142;2023-02-12T08:51:21;45.13;;;19.42;;
66559;SDS011;53413;49.878;8.142;2023-02-12T08:53:50;48.10;;;19.40;;
66559;SDS011;53413;49.878;8.142;2023-02-12T08:56:17;49.35;;;20.13;;
66559;SDS011;53413;49.878;8.142;2023-02-12T08:58:43;48.33;;;18.97;;
66559;SDS011;53413;49.878;8.142;2023-02-12T09:01:10;49.92;;;20.65;;
66559;SDS011;53413;49.878;8.142;2023-02-12T09:03:37;51.65;;;22.15;;
66559;SDS011;53413;49.878;8.142;2023-02-12T09:06:04;46.93;;;20.10;;
66559;SDS011;53413;49.878;8.142;2023-02-12T09:08:30;47.90;;;20.85;;
66559;SDS011;53413;49.878;8.142;2023-02-12T09:10:56;48.03;;;19.67;;
66559;SDS011;53413;49.878;8.142;2023-02-12T09:13:21;49.97;;;20.40;;
66559;SDS011;53413;49.878;8.142;2023-02-12T09:15:49;50.25;;;19.75;;
66559;SDS011;53413;49.878;8.142;2023-02-12T09:18:14;45.70;;;19.67;;
66559;SDS011;53413;49.878;8.142;2023-02-12T09:20:42;44.53;;;18.92;;
66559;SDS011;53413;49.878;8.142;2023-02-12T09:23:13;50.67;;;20.90;;
66559;SDS011;53413;49.878;8.142;2023-02-12T09:25:43;48.88;;;20.23;;
66559;SDS011;53413;49.878;8.142;2023-02-12T09:28:10;55.42;;;22.30;;
66559;SDS011;53413;49.878;8.142;2023-02-12T09:30:37;51.58;;;20.38;;
66559;SDS011;53413;49.878;8.142;2023-02-12T09:33:03;57.00;;;22.40;;
66559;SDS011;53413;49.878;8.142;2023-02-12T09:35:29;51.53;;;20.90;;
66559;SDS011;53413;49.878;8.142;2023-02-12T09:37:55;52.42;;;20.67;;
66559;SDS011;53413;49.878;8.142;2023-02-12T09:40:21;48.00;;;20.53;;
66559;SDS011;53413;49.878;8.142;2023-02-12T09:45:25;51.13;;;19.95;;
66559;SDS011;53413;49.878;8.142;2023-02-12T09:50:58;52.87;;;19.07;;
66559;SDS011;53413;49.878;8.142;2023-02-12T09:53:28;50.08;;;19.05;;
66559;SDS011;53413;49.878;8.142;2023-02-12T09:55:55;50.10;;;19.42;;
66559;SDS011;53413;49.878;8.142;2023-02-12T09:58:23;52.93;;;19.63;;
66559;SDS011;53413;49.878;8.142;2023-02-12T10:00:57;50.00;;;19.10;;
66559;SDS011;53413;49.878;8.142;2023-02-12T10:03:23;51.25;;;19.58;;
66559;SDS011;53413;49.878;8.142;2023-02-12T10:05:51;53.37;;;20.17;;
66559;SDS011;53413;49.878;8.142;2023-02-12T10:11:05;48.85;;;20.02;;
66559;SDS011;53413;49.878;8.142;2023-02-12T10:19:32;48.20;;;17.77;;
66559;SDS011;53413;49.878;8.142;2023-02-12T10:25:08;55.15;;;19.40;;
66559;SDS011;53413;49.878;8.142;2023-02-12T10:27:54;53.97;;;19.42;;
66559;SDS011;53413;49.878;8.142;2023-02-12T10:30:26;48.28;;;18.15;;
66559;SDS011;53413;49.878;8.142;2023-02-12T10:33:05;49.30;;;18.53;;
66559;SDS011;53413;49.878;8.142;2023-02-12T10:35:39;49.85;;;18.55;;
66559;SDS011;53413;49.878;8.142;2023-02-12T10:38:15;49.17;;;18.90;;
66559;SDS011;53413;49.878;8.142;2023-02-12T10:40:44;49.08;;;17.63;;
66559;SDS011;53413;49.878;8.142;2023-02-12T10:43:11;49.17;;;18.17;;
66559;SDS011;53413;49.878;8.142;2023-02-12T10:45:38;49.13;;;18.40;;
66559;SDS011;53413;49.878;8.142;2023-02-12T10:48:06;51.05;;;19.15;;
66559;SDS011;53413;49.878;8.142;2023-02-12T10:53:20;47.53;;;17.75;;
66559;SDS011;53413;49.878;8.142;2023-02-12T10:58:36;46.37;;;18.77;;
66559;SDS011;53413;49.878;8.142;2023-02-12T11:01:04;49.08;;;19.13;;
66559;SDS011;53413;49.878;8.142;2023-02-12T11:03:40;45.03;;;17.73;;
66559;SDS011;53413;49.878;8.142;2023-02-12T11:06:20;47.85;;;19.48;;
66559;SDS011;53413;49.878;8.142;2023-02-12T11:08:47;44.38;;;18.40;;
66559;SDS011;53413;49.878;8.142;2023-02-12T11:11:27;42.97;;;17.17;;
66559;SDS011;53413;49.878;8.142;2023-02-12T11:14:16;47.47;;;18.38;;
66559;SDS011;53413;49.878;8.142;2023-02-12T11:16:51;44.95;;;18.30;;
66559;SDS011;53413;49.878;8.142;2023-02-12T11:19:26;50.43;;;19.13;;
66559;SDS011;53413;49.878;8.142;2023-02-12T11:22:04;42.67;;;16.40;;
66559;SDS011;53413;49.878;8.142;2023-02-12T11:24:34;44.63;;;17.73;;
66559;SDS011;53413;49.878;8.142;2023-02-12T11:29:36;43.85;;;17.02;;
66559;SDS011;53413;49.878;8.142;2023-02-12T11:32:02;44.53;;;16.90;;
66559;SDS011;53413;49.878;8.142;2023-02-12T11:34:32;43.55;;;17.25;;
66559;SDS011;53413;49.878;8.142;2023-02-12T11:36:58;44.17;;;17.00;;
66559;SDS011;53413;49.878;8.142;2023-02-12T11:39:30;43.28;;;17.20;;
66559;SDS011;53413;49.878;8.142;2023-02-12T11:44:38;43.45;;;16.20;;
66559;SDS011;53413;49.878;8.142;2023-02-12T11:47:08;46.17;;;19.52;;
66559;SDS011;53413;49.878;8.142;2023-02-12T11:50:16;40.43;;;15.33;;
66559;SDS011;53413;49.878;8.142;2023-02-12T11:52:42;42.75;;;16.58;;
66559;SDS011;53413;49.878;8.142;2023-02-12T11:57:54;40.25;;;15.93;;
66559;SDS011;53413;49.878;8.142;2023-02-12T12:00:28;38.22;;;14.98;;
66559;SDS011;53413;49.878;8.142;2023-02-12T12:05:59;39.22;;;14.65;;
66559;SDS011;53413;49.878;8.142;2023-02-12T12:08:50;40.58;;;14.93;;
66559;SDS011;53413;49.878;8.142;2023-02-12T12:11:24;39.08;;;14.85;;
66559;SDS011;53413;49.878;8.142;2023-02-12T12:13:53;37.03;;;14.50;;
66559;SDS011;53413;49.878;8.142;2023-02-12T12:16:29;36.40;;;13.60;;
66559;SDS011;53413;49.878;8.142;2023-02-12T12:19:28;39.22;;;15.07;;
66559;SDS011;53413;49.878;8.142;2023-02-12T12:22:26;41.13;;;15.93;;
66559;SDS011;53413;49.878;8.142;2023-02-12T12:25:04;41.75;;;16.67;;
66559;SDS011;53413;49.878;8.142;2023-02-12T12:27:39;42.13;;;15.45;;
66559;SDS011;53413;49.878;8.142;2023-02-12T12:30:36;38.03;;;15.27;;
66559;SDS011;53413;49.878;8.142;2023-02-12T12:47:14;38.90;;;15.50;;
66559;SDS011;53413;49.878;8.142;2023-02-12T13:00:40;33.10;;;13.20;;
66559;SDS011;53413;49.878;8.142;2023-02-12T13:03:20;35.33;;;14.25;;
66559;SDS011;53413;49.878;8.142;2023-02-12T13:06:04;36.80;;;14.23;;
66559;SDS011;53413;49.878;8.142;2023-02-12T13:11:38;36.33;;;13.97;;
66559;SDS011;53413;49.878;8.142;2023-02-12T13:14:13;35.40;;;14.82;;
66559;SDS011;53413;49.878;8.142;2023-02-12T13:16:50;36.20;;;13.95;;
66559;SDS011;53413;49.878;8.142;2023-02-12T13:24:52;32.87;;;13.10;;
66559;SDS011;53413;49.878;8.142;2023-02-12T13:27:29;23.75;;;9.73;;
66559;SDS011;53413;49.878;8.142;2023-02-12T13:35:29;28.98;;;11.68;;
66559;SDS011;53413;49.878;8.142;2023-02-12T13:37:59;28.80;;;11.27;;
66559;SDS011;53413;49.878;8.142;2023-02-12T13:40:27;30.25;;;12.20;;
66559;SDS011;53413;49.878;8.142;2023-02-12T13:50:53;17.63;;;7.38;;
66559;SDS011;53413;49.878;8.142;2023-02-12T14:02:01;19.23;;;7.70;;
66559;SDS011;53413;49.878;8.142;2023-02-12T14:04:42;20.70;;;8.75;;
66559;SDS011;53413;49.878;8.142;2023-02-12T14:07:13;20.50;;;8.37;;
66559;SDS011;53413;49.878;8.142;2023-02-12T14:09:46;21.52;;;8.63;;
66559;SDS011;53413;49.878;8.142;2023-02-12T14:18:33;19.70;;;8.07;;
66559;SDS011;53413;49.878;8.142;2023-02-12T14:20:46;19.42;;;8.35;;
66559;SDS011;53413;49.878;8.142;2023-02-12T14:23:23;22.57;;;9.47;;
66559;SDS011;53413;49.878;8.142;2023-02-12T14:28:22;25.55;;;9.75;;
66559;SDS011;53413;49.878;8.142;2023-02-12T14:33:41;25.48;;;10.02;;
66559;SDS011;53413;49.878;8.142;2023-02-12T14:49:26;29.83;;;11.57;;
66559;SDS011;53413;49.878;8.142;2023-02-12T14:54:30;32.50;;;12.60;;
66559;SDS011;53413;49.878;8.142;2023-02-12T14:57:02;32.83;;;12.73;;
66559;SDS011;53413;49.878;8.142;2023-02-12T14:59:35;29.95;;;12.00;;
66559;SDS011;53413;49.878;8.142;2023-02-12T15:02:04;29.42;;;12.27;;
66559;SDS011;53413;49.878;8.142;2023-02-12T15:04:33;29.33;;;12.00;;
66559;SDS011;53413;49.878;8.142;2023-02-12T15:07:06;30.48;;;12.80;;
66559;SDS011;53413;49.878;8.142;2023-02-12T15:09:38;33.50;;;13.20;;
66559;SDS011;53413;49.878;8.142;2023-02-12T15:12:14;31.38;;;12.27;;
66559;SDS011;53413;49.878;8.142;2023-02-12T15:15:00;30.17;;;11.63;;
66559;SDS011;53413;49.878;8.142;2023-02-12T15:17:31;31.43;;;12.70;;
66559;SDS011;53413;49.878;8.142;2023-02-12T15:20:18;32.15;;;12.18;;
66559;SDS011;53413;49.878;8.142;2023-02-12T15:22:47;31.23;;;12.52;;
66559;SDS011;53413;49.878;8.142;2023-02-12T15:25:22;34.50;;;13.23;;
66559;SDS011;53413;49.878;8.142;2023-02-12T15:27:52;31.33;;;12.43;;
66559;SDS011;53413;49.878;8.142;2023-02-12T15:30:39;32.13;;;12.77;;
66559;SDS011;53413;49.878;8.142;2023-02-12T15:33:06;34.35;;;12.65;;
66559;SDS011;53413;49.878;8.142;2023-02-12T15:35:37;34.55;;;13.20;;
66559;SDS011;53413;49.878;8.142;2023-02-12T15:38:08;32.83;;;12.83;;
66559;SDS011;53413;49.878;8.142;2023-02-12T15:40:54;32.90;;;13.35;;
66559;SDS011;53413;49.878;8.142;2023-02-12T15:43:24;34.92;;;13.35;;
66559;SDS011;53413;49.878;8.142;2023-02-12T15:45:51;35.63;;;14.07;;
66559;SDS011;53413;49.878;8.142;2023-02-12T15:48:18;36.17;;;13.43;;
66559;SDS011;53413;49.878;8.142;2023-02-12T15:53:13;35.72;;;13.55;;
66559;SDS011;53413;49.878;8.142;2023-02-12T15:55:40;36.50;;;14.70;;
66559;SDS011;53413;49.878;8.142;2023-02-12T15:58:19;35.30;;;13.47;;
66559;SDS011;53413;49.878;8.142;2023-02-12T16:00:47;33.72;;;13.45;;
66559;SDS011;53413;49.878;8.142;2023-02-12T16:03:32;35.15;;;13.60;;
66559;SDS011;53413;49.878;8.142;2023-02-12T16:06:01;34.72;;;13.85;;
66559;SDS011;53413;49.878;8.142;2023-02-12T16:08:26;35.85;;;13.85;;
66559;SDS011;53413;49.878;8.142;2023-02-12T16:10:55;39.17;;;14.27;;
66559;SDS011;53413;49.878;8.142;2023-02-12T16:13:31;36.30;;;13.73;;
66559;SDS011;53413;49.878;8.142;2023-02-12T16:16:03;37.95;;;14.32;;
66559;SDS011;53413;49.878;8.142;2023-02-12T16:18:32;37.33;;;14.07;;
66559;SDS011;53413;49.878;8.142;2023-02-12T16:21:02;34.17;;;13.30;;
66559;SDS011;53413;49.878;8.142;2023-02-12T16:23:34;33.30;;;13.45;;
66559;SDS011;53413;49.878;8.142;2023-02-12T16:26:00;33.87;;;13.80;;
66559;SDS011;53413;49.878;8.142;2023-02-12T16:28:27;35.20;;;13.38;;
66559;SDS011;53413;49.878;8.142;2023-02-12T16:31:06;37.75;;;13.90;;
66559;SDS011;53413;49.878;8.142;2023-02-12T16:38:52;36.40;;;12.70;;
66559;SDS011;53413;49.878;8.142;2023-02-12T16:43:46;35.33;;;13.27;;
66559;SDS011;53413;49.878;8.142;2023-02-12T16:46:13;31.98;;;11.50;;
66559;SDS011;53413;49.878;8.142;2023-02-12T16:48:44;30.83;;;11.50;;
66559;SDS011;53413;49.878;8.142;2023-02-12T16:54:01;30.25;;;11.02;;
66559;SDS011;53413;49.878;8.142;2023-02-12T16:56:28;32.72;;;13.43;;
66559;SDS011;53413;49.878;8.142;2023-02-12T16:58:58;34.90;;;13.45;;
66559;SDS011;53413;49.878;8.142;2023-02-12T17:01:25;29.00;;;11.32;;
66559;SDS011;53413;49.878;8.142;2023-02-12T17:04:01;27.43;;;10.70;;
66559;SDS011;53413;49.878;8.142;2023-02-12T17:06:31;32.03;;;11.57;;
66559;SDS011;53413;49.878;8.142;2023-02-12T17:08:57;29.02;;;11.00;;
66559;SDS011;53413;49.878;8.142;2023-02-12T17:11:24;26.98;;;10.50;;
66559;SDS011;53413;49.878;8.142;2023-02-12T17:13:52;30.40;;;11.85;;
66559;SDS011;53413;49.878;8.142;2023-02-12T17:16:18;32.10;;;11.60;;
66559;SDS011;53413;49.878;8.142;2023-02-12T17:18:44;30.77;;;11.63;;
66559;SDS011;53413;49.878;8.142;2023-02-12T17:23:38;31.77;;;11.77;;
66559;SDS011;53413;49.878;8.142;2023-02-12T17:26:04;32.50;;;11.38;;
66559;SDS011;53413;49.878;8.142;2023-02-12T17:28:31;30.85;;;11.55;;